Time;durP1;ratioP1;P1;durP2;ratioP2;P2;SDS_P1;SDS_P2;PMS_P1;PMS_P2;Temp;Humidity;BMP_temperature;BMP_pressure;BME280_temperature;BME280_humidity;BME280_pressure;Samples;Min_cycle;Max_cycle;Signal;HPM_P1;HPM_P2
2023/06/24 00:00:38;;;;;;;17.60;12.60;;;23.30;99.90;;;23.87;67.22;94989.31;4988619;28;20478;-59
2023/06/24 00:03:07;;;;;;;35.13;15.10;;;23.40;99.90;;;23.85;67.29;94991.41;4988260;28;20767;-58
2023/06/24 00:05:35;;;;;;;22.30;14.70;;;23.30;99.90;;;23.80;66.95;94983.16;4988559;28;20596;-58
2023/06/24 00:08:03;;;;;;;16.40;13.90;;;23.30;99.90;;;23.78;67.91;94979.84;4988483;28;20922;-57
2023/06/24 00:10:31;;;;;;;21.57;13.40;;;23.20;99.90;;;23.75;68.06;94974.91;4987936;28;21899;-57
2023/06/24 00:13:01;;;;;;;21.70;13.50;;;23.20;99.90;;;23.71;68.43;94973.72;4988625;28;20458;-58
2023/06/24 00:15:28;;;;;;;20.50;14.70;;;23.20;99.90;;;23.68;68.35;94984.91;4988729;28;21005;-57
2023/06/24 00:18:05;;;;;;;22.27;13.57;;;23.10;99.90;;;23.65;68.15;94985.34;4988598;28;20477;-56
2023/06/24 00:20:33;;;;;;;18.53;13.20;;;23.10;99.90;;;23.59;68.43;94982.50;4988069;28;20469;-61
2023/06/24 00:23:00;;;;;;;17.77;13.40;;;23.10;99.90;;;23.56;67.66;94977.56;4988249;28;20454;-60
2023/06/24 00:25:27;;;;;;;15.37;12.90;;;23.00;99.90;;;23.54;68.09;94986.88;4985169;28;20976;-58
2023/06/24 00:27:56;;;;;;;17.23;12.47;;;23.00;99.90;;;23.48;68.19;94969.75;4988490;28;20494;-57
2023/06/24 00:30:23;;;;;;;18.13;12.40;;;23.00;99.90;;;23.45;67.95;94975.56;4987929;28;20470;-58
2023/06/24 00:32:51;;;;;;;16.07;12.00;;;22.90;99.90;;;23.42;67.33;94987.59;4986050;28;20473;-53
2023/06/24 00:35:18;;;;;;;13.63;11.07;;;22.90;99.90;;;23.42;67.16;94987.59;4990649;28;21086;-57
2023/06/24 00:37:46;;;;;;;21.33;13.60;;;22.90;99.90;;;23.41;67.88;94985.94;4987891;28;21006;-55
2023/06/24 00:40:15;;;;;;;18.40;12.60;;;22.90;99.90;;;23.39;67.93;94982.66;4987975;28;20477;-57
2023/06/24 00:42:43;;;;;;;18.73;13.30;;;22.90;99.90;;;23.38;67.37;94977.50;4987761;28;20486;-58
2023/06/24 00:45:12;;;;;;;19.30;13.20;;;22.80;99.90;;;23.36;68.40;94982.25;4987981;28;20900;-58
2023/06/24 00:47:39;;;;;;;18.90;13.40;;;22.80;99.90;;;23.34;68.35;94978.97;4987801;28;20493;-58
2023/06/24 00:50:08;;;;;;;19.30;12.53;;;22.80;99.90;;;23.31;68.47;94969.47;4987270;28;20525;-59
2023/06/24 00:52:36;;;;;;;17.63;11.80;;;22.80;99.90;;;23.29;68.05;94960.00;4987860;28;20462;-54
2023/06/24 00:55:06;;;;;;;16.40;12.77;;;22.80;99.90;;;23.25;68.53;94971.19;4987877;28;20481;-54
2023/06/24 00:57:33;;;;;;;19.17;12.97;;;22.70;99.90;;;23.20;68.63;94962.94;4985549;28;20462;-58
2023/06/24 01:00:01;;;;;;;18.60;13.43;;;22.70;99.90;;;23.17;68.34;94958.00;4987628;28;20486;-55
2023/06/24 01:02:32;;;;;;;24.97;13.20;;;22.60;99.90;;;23.15;68.27;94967.31;4987726;28;20493;-53
2023/06/24 01:04:59;;;;;;;18.37;14.00;;;22.60;99.90;;;23.11;68.99;94964.22;4987313;28;20885;-54
2023/06/24 01:07:27;;;;;;;20.90;13.70;;;22.60;99.90;;;23.09;68.96;94967.13;4987992;28;20501;-56
2023/06/24 01:09:55;;;;;;;25.80;13.23;;;22.60;99.90;;;23.06;68.29;94961.34;4986074;28;20545;-56
2023/06/24 01:12:22;;;;;;;16.70;13.40;;;22.50;99.90;;;23.01;68.94;94953.94;4987413;28;20450;-55
2023/06/24 01:14:49;;;;;;;17.63;13.67;;;22.50;99.90;;;22.99;69.47;94960.56;4989628;28;20556;-58
2023/06/24 01:17:17;;;;;;;13.23;11.43;;;22.50;99.90;;;22.96;69.60;94952.94;4987392;28;20450;-58
2023/06/24 01:20:04;;;;;;;20.93;13.13;;;22.40;99.90;;;22.94;69.76;94958.50;4984765;28;20642;-55
2023/06/24 01:23:16;;;;;;;21.93;12.83;;;22.40;99.90;;;22.87;70.00;94952.38;4983919;28;20454;-55
2023/06/24 01:26:09;;;;;;;16.17;13.13;;;22.40;99.90;;;22.85;70.39;94955.28;4978676;28;20483;-58
2023/06/24 01:29:15;;;;;;;18.40;12.33;;;22.30;99.90;;;22.82;69.92;94958.38;4984194;28;20501;-58
2023/06/24 01:31:45;;;;;;;15.10;12.60;;;22.30;99.90;;;22.78;70.35;94967.88;4986971;28;20446;-55
2023/06/24 01:34:21;;;;;;;19.77;13.37;;;22.30;99.90;;;22.76;70.08;94980.69;4987365;28;20478;-54
2023/06/24 01:37:06;;;;;;;16.60;14.10;;;22.20;99.90;;;22.72;69.99;94980.28;4986923;28;20951;-53
2023/06/24 01:39:35;;;;;;;18.70;12.87;;;22.20;99.90;;;22.70;69.50;94984.22;4986099;28;20474;-56
2023/06/24 01:42:08;;;;;;;21.90;14.37;;;22.20;99.90;;;22.66;69.35;94980.31;4983410;28;20533;-57
2023/06/24 01:44:36;;;;;;;16.63;13.43;;;22.20;99.90;;;22.64;69.82;94990.44;4986480;28;20482;-54
2023/06/24 01:47:05;;;;;;;16.83;13.40;;;22.20;99.90;;;22.59;69.40;94998.28;4986442;28;20457;-57
2023/06/24 01:49:33;;;;;;;17.47;12.77;;;22.10;99.90;;;22.56;69.54;94995.00;4987136;28;20552;-59
2023/06/24 01:52:01;;;;;;;18.63;15.00;;;22.10;99.90;;;22.53;69.92;94994.59;4986562;28;21020;-58
2023/06/24 01:54:29;;;;;;;17.70;13.17;;;22.00;99.90;;;22.48;70.29;94994.38;4986692;28;20564;-58
2023/06/24 01:56:57;;;;;;;19.10;14.30;;;22.00;99.90;;;22.46;70.00;94994.59;4987631;28;20468;-54
2023/06/24 01:59:24;;;;;;;15.70;14.10;;;22.00;99.90;;;22.44;69.77;94996.69;4986422;28;20478;-58
2023/06/24 02:01:52;;;;;;;20.00;14.17;;;21.90;99.90;;;22.43;70.02;95002.25;4986282;28;20921;-56
2023/06/24 02:04:21;;;;;;;19.47;14.47;;;21.90;99.90;;;22.42;70.16;95008.63;4986128;28;20482;-59
2023/06/24 02:06:48;;;;;;;18.23;14.40;;;21.90;99.90;;;22.40;70.17;95011.53;4986622;28;20450;-55
2023/06/24 02:09:15;;;;;;;20.43;15.03;;;21.90;99.90;;;22.38;70.56;95006.41;4987763;28;21037;-58
2023/06/24 02:11:43;;;;;;;17.63;13.67;;;21.90;99.90;;;22.37;70.21;95010.09;4986542;28;20454;-58
2023/06/24 02:14:10;;;;;;;17.30;14.60;;;21.80;99.90;;;22.36;70.51;95013.00;4986358;28;20474;-57
2023/06/24 02:16:37;;;;;;;18.10;15.23;;;21.80;99.90;;;22.32;70.50;95019.78;4985598;28;20985;-57
2023/06/24 02:19:04;;;;;;;24.60;14.40;;;21.80;99.90;;;22.30;69.87;95011.13;4986740;28;20468;-57
2023/06/24 02:21:35;;;;;;;20.70;14.33;;;21.80;99.90;;;22.26;70.32;95016.09;4986569;28;20886;-56
2023/06/24 02:24:02;;;;;;;18.00;13.80;;;21.80;99.90;;;22.24;70.44;95022.69;4986306;28;20466;-57
2023/06/24 02:26:29;;;;;;;15.90;14.27;;;21.70;99.90;;;22.21;70.53;95029.25;4986318;28;20450;-55
2023/06/24 02:28:56;;;;;;;22.33;16.27;;;21.70;99.90;;;22.16;71.29;95034.44;4988136;28;20560;-55
2023/06/24 02:31:24;;;;;;;17.97;14.67;;;21.70;99.90;;;22.11;71.00;95040.41;4986242;28;20540;-56
2023/06/24 02:33:51;;;;;;;16.30;14.60;;;21.70;99.90;;;22.09;70.67;95037.13;4987625;28;20474;-54
2023/06/24 02:36:18;;;;;;;18.10;14.80;;;21.60;99.90;;;22.08;70.98;95038.16;4983014;28;20455;-55
2023/06/24 02:38:47;;;;;;;17.57;13.80;;;21.60;99.90;;;22.06;70.82;95048.25;4985637;28;21022;-58
2023/06/24 02:41:14;;;;;;;18.67;15.20;;;21.60;99.90;;;22.05;71.01;95046.59;4985840;28;20465;-57
2023/06/24 02:43:41;;;;;;;22.67;15.07;;;21.60;99.90;;;22.04;71.10;95039.59;4982883;28;20993;-57
2023/06/24 02:46:08;;;;;;;19.83;15.00;;;21.50;99.90;;;22.04;70.99;95039.59;4986439;28;20474;-57
2023/06/24 02:48:36;;;;;;;21.17;15.27;;;21.50;99.90;;;22.02;70.89;95045.16;4985647;28;20920;-58
2023/06/24 02:51:03;;;;;;;19.23;15.23;;;21.50;99.90;;;22.03;70.64;95054.03;4985742;28;21025;-55
2023/06/24 02:53:31;;;;;;;17.40;14.30;;;21.50;99.90;;;22.02;71.33;95060.41;4986421;28;20473;-55
2023/06/24 02:55:59;;;;;;;21.23;14.10;;;21.50;99.90;;;22.02;71.46;95055.06;4985941;28;21513;-56
2023/06/24 02:58:31;;;;;;;23.17;15.43;;;21.50;99.90;;;22.02;71.52;95057.72;4985324;28;20466;-57
2023/06/24 03:00:59;;;;;;;16.97;14.57;;;21.50;99.90;;;22.02;71.24;95058.53;4986490;28;20482;-57
2023/06/24 03:03:27;;;;;;;16.33;13.93;;;21.50;99.90;;;22.02;71.04;95047.00;4985857;28;20463;-58
2023/06/24 03:05:56;;;;;;;27.10;14.10;;;21.50;99.90;;;22.01;71.09;95046.19;4985241;28;20532;-54
2023/06/24 03:08:24;;;;;;;24.10;13.67;;;21.50;99.90;;;22.02;71.26;95041.66;4983561;28;21287;-54
2023/06/24 03:10:52;;;;;;;22.80;14.27;;;21.50;99.90;;;22.03;71.66;95046.00;4985755;28;20477;-54
2023/06/24 03:13:20;;;;;;;22.07;14.43;;;21.50;99.90;;;22.05;70.85;95051.97;4985723;28;20458;-58
2023/06/24 03:15:48;;;;;;;23.47;13.80;;;21.60;99.90;;;22.06;70.87;95050.94;4985827;28;20990;-57
2023/06/24 03:18:15;;;;;;;20.17;13.60;;;21.60;99.90;;;22.09;70.93;95055.03;4986824;28;20462;-54
2023/06/24 03:20:42;;;;;;;17.33;14.50;;;21.60;99.90;;;22.10;71.02;95054.00;4985958;28;20486;-57
2023/06/24 03:23:10;;;;;;;25.20;15.13;;;21.60;99.90;;;22.11;71.12;95061.03;4985564;28;20454;-58
2023/06/24 03:25:37;;;;;;;22.30;13.23;;;21.60;99.90;;;22.11;71.04;95061.84;4985273;28;20962;-57
2023/06/24 03:28:07;;;;;;;24.03;14.00;;;21.60;99.90;;;22.13;71.22;95067.81;4985529;28;20490;-56
2023/06/24 03:30:35;;;;;;;16.47;13.07;;;21.70;99.90;;;22.14;70.71;95066.78;4986052;28;20474;-57
2023/06/24 03:33:03;;;;;;;19.00;14.23;;;21.70;99.90;;;22.16;71.04;95075.44;4986981;28;20549;-57
2023/06/24 03:35:32;;;;;;;20.83;14.07;;;21.70;99.90;;;22.19;71.42;95083.06;4989331;28;20605;-58
2023/06/24 03:37:59;;;;;;;20.70;14.00;;;21.70;99.90;;;22.22;71.03;95081.84;4991677;28;20514;-57
2023/06/24 03:40:26;;;;;;;17.30;14.70;;;21.70;99.90;;;22.23;70.98;95083.50;4989499;28;20474;-58
2023/06/24 03:42:54;;;;;;;19.37;13.40;;;21.80;99.90;;;22.26;71.28;95084.91;4991426;28;20901;-58
2023/06/24 03:45:21;;;;;;;15.23;13.63;;;21.70;99.90;;;22.29;70.58;95084.50;4988860;28;20482;-58
2023/06/24 03:47:49;;;;;;;15.70;12.47;;;21.80;99.90;;;22.33;70.88;95089.25;4991077;28;20454;-57
2023/06/24 03:50:17;;;;;;;20.27;14.33;;;21.80;99.90;;;22.38;70.58;95094.00;4989053;28;20474;-54
2023/06/24 03:52:44;;;;;;;17.00;12.60;;;21.90;99.90;;;22.39;70.47;95090.31;4988947;28;20477;-57
2023/06/24 03:55:12;;;;;;;14.63;13.13;;;21.90;99.90;;;22.43;70.46;95090.69;4989468;28;20589;-54
2023/06/24 03:57:39;;;;;;;15.23;12.83;;;21.90;99.90;;;22.45;70.17;95089.47;4990330;28;20896;-57
2023/06/24 04:00:14;;;;;;;29.37;21.13;;;21.90;99.90;;;22.48;70.50;95097.09;4987775;28;20537;-57
2023/06/24 04:02:42;;;;;;;22.13;15.10;;;22.00;99.90;;;22.51;70.15;95093.16;4985107;28;20461;-58
2023/06/24 04:05:10;;;;;;;20.60;14.10;;;22.00;99.90;;;22.55;70.23;95095.22;4988762;28;20572;-56
2023/06/24 04:07:39;;;;;;;91.97;15.23;;;22.00;99.90;;;22.57;69.46;95100.34;4988683;28;20465;-55
2023/06/24 04:10:08;;;;;;;25.00;14.00;;;22.10;99.90;;;22.58;70.10;95098.53;4988439;28;21287;-58
2023/06/24 04:12:36;;;;;;;20.83;15.33;;;22.10;99.90;;;22.59;69.80;95082.22;4988765;28;20446;-58
2023/06/24 04:15:04;;;;;;;19.00;15.67;;;22.10;99.90;;;22.58;69.37;95091.28;4988727;28;20948;-58
2023/06/24 04:17:31;;;;;;;15.83;14.10;;;22.10;99.90;;;22.54;69.11;95088.22;4988033;28;20775;-58
2023/06/24 04:19:59;;;;;;;19.90;15.50;;;22.10;99.90;;;22.51;69.47;95077.06;4988605;28;20541;-56
2023/06/24 04:22:28;;;;;;;21.23;14.70;;;22.00;99.90;;;22.50;69.01;95073.56;4988198;28;20483;-55
2023/06/24 04:24:55;;;;;;;17.60;14.30;;;22.00;99.90;;;22.50;69.94;95073.56;4988467;28;20560;-57
2023/06/24 04:27:22;;;;;;;20.03;14.90;;;22.00;99.90;;;22.54;69.52;95076.66;4988909;28;20803;-58
2023/06/24 04:29:49;;;;;;;19.97;14.47;;;22.00;99.90;;;22.56;69.59;95075.41;4988159;28;20498;-55
2023/06/24 04:32:16;;;;;;;30.07;15.03;;;22.00;99.90;;;22.61;69.62;95079.34;4987461;28;20977;-56
2023/06/24 04:34:44;;;;;;;22.73;15.70;;;22.00;99.90;;;22.64;68.79;95086.97;4987818;28;20470;-55
2023/06/24 04:37:11;;;;;;;47.17;35.23;;;22.10;99.90;;;22.68;69.59;95091.69;4987760;28;20524;-56
2023/06/24 04:39:39;;;;;;;22.50;16.70;;;22.10;99.90;;;22.76;69.21;95095.16;4987262;28;20475;-54
2023/06/24 04:42:07;;;;;;;16.70;14.07;;;22.20;99.90;;;22.82;68.63;95084.44;4988550;28;20466;-56
2023/06/24 04:44:34;;;;;;;21.80;16.27;;;22.30;99.90;;;22.89;68.24;95087.91;4988177;28;20524;-54
2023/06/24 04:47:02;;;;;;;23.73;14.30;;;22.30;99.90;;;22.98;67.80;95096.56;4990081;28;21048;-56
2023/06/24 04:49:29;;;;;;;34.33;25.30;;;22.40;99.90;;;23.05;68.18;95094.69;4990275;28;20940;-55
2023/06/24 04:51:56;;;;;;;22.70;16.43;;;22.50;99.90;;;23.11;67.88;95093.03;4987328;28;20532;-54
2023/06/24 04:54:23;;;;;;;19.00;15.30;;;22.60;99.90;;;23.21;68.15;95093.41;4986989;28;20474;-57
2023/06/24 04:56:55;;;;;;;27.10;15.53;;;22.70;99.90;;;23.29;67.52;95092.34;4985228;28;20475;-55
2023/06/24 04:59:22;;;;;;;31.43;15.57;;;22.70;99.90;;;23.38;67.75;95092.94;4987641;28;21007;-57
2023/06/24 05:01:49;;;;;;;21.00;17.47;;;22.80;99.90;;;23.44;67.58;95090.19;4986910;28;20470;-55
2023/06/24 05:04:16;;;;;;;19.33;14.50;;;22.90;99.90;;;23.55;67.36;95087.88;4984118;28;20497;-57
2023/06/24 05:06:43;;;;;;;22.33;15.67;;;23.00;99.90;;;23.62;67.46;95086.81;4987959;28;20982;-54
2023/06/24 05:09:13;;;;;;;30.33;16.53;;;23.10;99.90;;;23.74;67.16;95091.47;4987544;28;20524;-55
2023/06/24 05:11:40;;;;;;;26.43;15.57;;;23.20;99.90;;;23.83;67.17;95090.19;4986070;28;20450;-57
2023/06/24 05:14:09;;;;;;;29.93;16.40;;;23.30;99.90;;;23.94;66.53;95089.50;4987622;28;20548;-58
2023/06/24 05:16:36;;;;;;;27.13;16.40;;;23.40;99.90;;;24.05;65.92;95085.28;4987368;28;20542;-58
2023/06/24 05:19:03;;;;;;;25.20;16.27;;;23.50;99.90;;;24.17;65.60;95080.84;4989730;28;20457;-57
2023/06/24 05:21:31;;;;;;;29.17;17.73;;;23.60;99.90;;;24.30;65.97;95077.22;4987644;28;20481;-54
2023/06/24 05:23:58;;;;;;;24.40;17.70;;;23.70;99.90;;;24.44;65.66;95074.41;4987506;28;21013;-58
2023/06/24 05:26:26;;;;;;;18.47;15.87;;;23.80;99.90;;;24.61;65.02;95077.38;4986515;28;21027;-57
2023/06/24 05:28:53;;;;;;;22.23;17.60;;;23.90;99.90;;;24.77;65.15;95084.88;4986750;28;20510;-59
2023/06/24 05:31:22;;;;;;;21.97;17.70;;;24.10;99.90;;;24.97;64.79;95084.66;4986733;28;20456;-54
2023/06/24 05:33:49;;;;;;;22.80;16.57;;;24.30;99.90;;;25.17;64.53;95086.28;4986666;28;20454;-56
2023/06/24 05:36:16;;;;;;;25.97;17.90;;;24.50;99.90;;;25.33;63.93;95080.31;4985371;28;21029;-56
2023/06/24 05:38:43;;;;;;;25.47;17.20;;;24.70;99.90;;;25.50;63.78;95085.88;4986656;28;20454;-57
2023/06/24 05:41:11;;;;;;;28.47;18.13;;;24.80;99.90;;;25.68;63.28;95089.56;4986878;28;20454;-56
2023/06/24 05:43:38;;;;;;;19.63;16.00;;;25.00;99.90;;;25.86;62.81;95086.00;4986796;28;20454;-55
2023/06/24 05:46:05;;;;;;;25.43;16.83;;;25.20;99.90;;;26.04;62.29;95085.13;4988877;28;20548;-58
2023/06/24 05:48:34;;;;;;;23.30;18.50;;;25.30;99.90;;;26.23;61.94;95075.09;4986362;28;20462;-60
2023/06/24 05:51:01;;;;;;;19.27;16.20;;;25.50;99.90;;;26.35;61.17;95073.19;4986562;28;20572;-59
2023/06/24 05:53:28;;;;;;;23.73;15.63;;;25.60;99.90;;;26.48;61.01;95075.69;4986872;28;20466;-59
2023/06/24 05:55:56;;;;;;;21.90;15.97;;;25.80;99.90;;;26.63;60.66;95077.06;4988095;28;20909;-56
2023/06/24 05:58:23;;;;;;;21.80;15.77;;;25.90;99.90;;;26.81;60.46;95070.75;4987050;28;20450;-58
2023/06/24 06:00:50;;;;;;;24.47;16.40;;;26.10;99.90;;;26.98;60.12;95076.25;4986892;28;20490;-58
2023/06/24 06:03:17;;;;;;;19.03;16.07;;;26.20;99.90;;;27.07;59.14;95063.22;4985380;28;20470;-56
2023/06/24 06:05:46;;;;;;;18.83;16.80;;;26.40;99.90;;;27.17;58.99;95058.84;4984374;28;20916;-60
2023/06/24 06:08:14;;;;;;;20.20;15.50;;;26.50;99.90;;;27.29;59.00;95066.09;4987389;28;20469;-56
2023/06/24 06:10:41;;;;;;;24.27;17.30;;;26.50;99.90;;;27.39;58.99;95069.03;4984791;28;20505;-58
2023/06/24 06:13:08;;;;;;;17.03;14.97;;;26.70;99.90;;;27.54;58.27;95073.88;4984018;28;20528;-58
2023/06/24 06:15:36;;;;;;;22.63;15.43;;;26.80;99.90;;;27.73;57.80;95072.63;4985515;28;20571;-58
2023/06/24 06:18:03;;;;;;;21.10;15.87;;;27.00;99.90;;;27.88;57.21;95069.34;4987419;28;21412;-56
2023/06/24 06:20:30;;;;;;;16.77;14.20;;;27.10;99.90;;;28.00;57.49;95065.81;4984057;28;20952;-55
2023/06/24 06:22:59;;;;;;;22.57;15.03;;;27.30;99.80;;;28.17;56.33;95072.03;4983971;28;20540;-57
2023/06/24 06:25:26;;;;;;;24.93;14.87;;;27.30;99.50;;;28.34;56.65;95071.25;4981620;28;20478;-56
2023/06/24 06:27:53;;;;;;;22.93;14.53;;;27.60;99.30;;;28.54;56.10;95076.16;4985560;28;20469;-57
2023/06/24 06:30:21;;;;;;;19.90;14.00;;;27.70;99.10;;;28.72;55.52;95073.19;4985560;28;20497;-55
2023/06/24 06:32:48;;;;;;;27.27;14.30;;;27.90;98.80;;;28.93;55.87;95081.59;4984110;28;20516;-57
2023/06/24 06:35:15;;;;;;;25.47;15.00;;;28.10;98.50;;;29.10;55.07;95068.81;4984180;28;20478;-56
2023/06/24 06:37:43;;;;;;;26.80;13.77;;;28.30;97.90;;;29.27;54.85;95081.50;4981295;28;20563;-55
2023/06/24 06:40:12;;;;;;;28.17;14.50;;;28.50;97.60;;;29.43;53.75;95083.31;4982914;28;20489;-59
2023/06/24 06:42:39;;;;;;;23.97;14.40;;;28.60;97.30;;;29.58;53.78;95076.44;4986130;28;20462;-58
2023/06/24 06:45:08;;;;;;;23.30;14.00;;;28.80;97.00;;;29.72;54.08;95072.25;4983764;28;20749;-58
2023/06/24 06:47:35;;;;;;;26.33;15.73;;;28.90;96.90;;;29.87;53.31;95071.63;4985085;28;20512;-60
2023/06/24 06:50:02;;;;;;;18.27;14.00;;;29.10;96.80;;;30.01;52.96;95075.56;4979128;28;20753;-59
2023/06/24 06:52:30;;;;;;;22.63;14.97;;;29.20;96.50;;;30.15;53.02;95086.00;4984250;28;20512;-55
2023/06/24 06:54:57;;;;;;;24.40;15.93;;;29.30;96.00;;;30.26;52.17;95085.00;4986214;28;20218;-55
2023/06/24 06:57:26;;;;;;;15.33;13.80;;;29.40;95.50;;;30.38;51.82;95079.38;4983245;28;20872;-56
2023/06/24 06:59:53;;;;;;;15.47;13.77;;;29.60;95.10;;;30.47;51.78;95082.47;4984739;28;20250;-59
2023/06/24 07:02:20;;;;;;;17.00;14.23;;;29.70;94.50;;;30.54;50.79;95085.78;4984532;28;22016;-58
2023/06/24 07:04:48;;;;;;;21.37;14.17;;;29.70;94.00;;;30.56;51.01;95087.13;4988358;28;20215;-62
2023/06/24 07:07:15;;;;;;;20.67;15.20;;;29.80;93.80;;;30.55;51.01;95087.41;4987117;28;20691;-56
2023/06/24 07:09:42;;;;;;;20.03;14.50;;;29.80;93.40;;;30.62;50.94;95093.44;4988186;28;20230;-56
2023/06/24 07:12:10;;;;;;;15.40;13.80;;;29.80;93.60;;;30.77;51.09;95078.31;4988109;28;20702;-60
2023/06/24 07:14:39;;;;;;;14.53;12.40;;;29.90;93.50;;;30.92;50.00;95081.94;4986385;28;20215;-56
2023/06/24 07:17:08;;;;;;;16.23;14.53;;;30.10;93.10;;;31.03;50.08;95073.88;4991038;28;20582;-60
2023/06/24 07:19:35;;;;;;;16.10;13.80;;;30.20;92.50;;;31.21;50.09;95088.91;4991196;28;20210;-61
2023/06/24 07:22:02;;;;;;;16.00;12.13;;;30.40;92.60;;;31.38;49.68;95075.94;4988238;28;20226;-55
2023/06/24 07:24:29;;;;;;;18.53;14.33;;;30.50;91.90;;;31.54;48.99;95076.00;4986757;28;20214;-56
2023/06/24 07:26:56;;;;;;;17.05;14.52;;;30.70;91.40;;;31.62;48.46;95073.59;4989923;28;20619;-59
2023/06/24 07:29:24;;;;;;;17.63;12.40;;;30.80;90.90;;;31.71;48.58;95073.88;4987993;28;20234;-57
2023/06/24 07:31:52;;;;;;;17.23;12.68;;;30.90;90.50;;;31.87;48.22;95071.19;4988222;28;20203;-59
2023/06/24 07:34:19;;;;;;;19.48;13.65;;;31.00;90.10;;;32.02;47.32;95073.13;4989196;28;20234;-58
2023/06/24 07:36:47;;;;;;;13.05;11.65;;;31.20;89.50;;;32.02;46.98;95071.22;4988766;28;20203;-55
2023/06/24 07:39:14;;;;;;;12.13;10.93;;;31.20;87.90;;;31.99;46.48;95069.03;4986177;28;21238;-58
2023/06/24 07:41:42;;;;;;;12.95;11.80;;;31.30;86.30;;;31.93;46.31;95070.09;4987921;28;20199;-55
2023/06/24 07:44:09;;;;;;;14.18;11.45;;;31.20;85.90;;;31.85;46.19;95063.28;4987850;28;20568;-59
2023/06/24 07:46:37;;;;;;;15.32;11.13;;;31.10;84.10;;;31.80;46.50;95068.75;4987150;28;20194;-59
2023/06/24 07:49:05;;;;;;;16.55;11.05;;;31.10;84.10;;;31.83;46.58;95068.19;4987619;28;20207;-60
2023/06/24 07:51:34;;;;;;;16.40;11.63;;;31.10;84.60;;;31.96;46.43;95073.13;4988151;28;20229;-55
2023/06/24 07:54:02;;;;;;;18.20;12.25;;;31.10;85.00;;;32.17;45.94;95078.59;4988071;28;20616;-54
2023/06/24 07:56:29;;;;;;;27.17;12.52;;;31.30;83.60;;;32.22;45.82;95075.06;4990138;28;20234;-58
2023/06/24 07:58:56;;;;;;;13.25;11.20;;;31.40;83.40;;;32.32;46.18;95081.34;4988854;28;20214;-59
2023/06/24 08:01:24;;;;;;;17.10;11.52;;;31.50;83.40;;;32.48;45.58;95084.06;4987837;28;20219;-56
2023/06/24 08:03:51;;;;;;;14.40;11.98;;;31.60;82.70;;;32.60;45.38;95086.50;4988937;28;20206;-59
2023/06/24 08:06:20;;;;;;;15.75;11.77;;;31.80;81.90;;;32.76;45.51;95084.59;4986291;28;21084;-58
2023/06/24 08:08:47;;;;;;;13.57;12.25;;;31.90;81.90;;;32.90;45.10;95080.22;4987379;28;20226;-56
2023/06/24 08:11:14;;;;;;;20.58;12.38;;;32.10;81.10;;;32.95;44.65;95076.66;4987607;28;20742;-54
2023/06/24 08:13:42;;;;;;;21.20;14.05;;;32.10;80.30;;;33.00;45.15;95074.75;4987114;28;20195;-55
2023/06/24 08:16:09;;;;;;;14.60;12.50;;;32.20;80.40;;;33.06;44.63;95079.09;4984242;28;20219;-58
2023/06/24 08:18:36;;;;;;;14.55;12.95;;;32.20;79.50;;;33.01;44.79;95070.91;4988187;28;20206;-55
2023/06/24 08:21:04;;;;;;;26.10;13.02;;;32.20;78.90;;;32.98;44.62;95070.66;4988513;28;20235;-56
2023/06/24 08:23:33;;;;;;;14.85;11.43;;;32.20;78.40;;;32.96;44.56;95062.75;4987467;28;20218;-56
2023/06/24 08:26:00;;;;;;;17.48;12.45;;;32.20;78.90;;;33.01;44.23;95054.56;4987820;28;20226;-55
2023/06/24 08:28:27;;;;;;;16.00;12.65;;;32.20;78.10;;;33.15;44.51;95062.97;4988099;28;20728;-58
2023/06/24 08:30:54;;;;;;;20.23;11.65;;;32.30;78.00;;;33.19;44.24;95061.34;4987697;28;20231;-59
2023/06/24 08:33:22;;;;;;;16.63;11.75;;;32.40;78.70;;;33.38;44.14;95055.28;4985000;28;20261;-54
2023/06/24 08:35:49;;;;;;;21.65;13.35;;;32.50;78.10;;;33.68;44.19;95062.50;4983903;28;20622;-58
2023/06/24 08:38:16;;;;;;;15.75;12.73;;;32.80;78.00;;;33.98;43.86;95057.97;4986969;28;20221;-55
2023/06/24 08:40:45;;;;;;;17.33;11.98;;;33.00;77.00;;;34.27;43.09;95057.22;4986133;28;20285;-59
2023/06/24 08:43:12;;;;;;;17.52;13.32;;;33.30;76.30;;;34.51;42.82;95053.75;4985226;28;20210;-55
2023/06/24 08:45:39;;;;;;;14.18;10.98;;;33.60;75.10;;;34.58;42.87;95049.59;4988617;28;20230;-58
2023/06/24 08:48:07;;;;;;;14.43;11.95;;;33.80;74.00;;;34.73;42.07;95045.88;4986616;28;20195;-55
2023/06/24 08:50:37;;;;;;;19.27;12.88;;;33.90;73.80;;;34.91;41.77;95044.34;4992614;28;20642;-59
2023/06/24 08:53:08;;;;;;;13.73;12.18;;;34.00;73.20;;;35.12;42.33;95044.94;4989333;28;20281;-57
2023/06/24 08:55:37;;;;;;;17.40;12.50;;;34.20;72.90;;;35.34;42.15;95043.63;4988227;28;20222;-57
2023/06/24 08:58:06;;;;;;;14.48;11.85;;;34.40;72.80;;;35.54;41.80;95043.34;4985793;28;20202;-56
2023/06/24 09:00:33;;;;;;;14.15;12.68;;;34.70;71.90;;;35.66;41.28;95044.81;4980630;28;20239;-57
2023/06/24 09:03:00;;;;;;;14.15;12.77;;;34.80;71.00;;;35.66;40.62;95042.09;4984326;28;20195;-57
2023/06/24 09:05:28;;;;;;;23.92;12.30;;;34.90;69.80;;;35.60;39.92;95033.13;4985745;28;20223;-54
2023/06/24 09:07:55;;;;;;;30.70;15.20;;;34.80;68.20;;;35.46;40.53;95032.25;4985216;28;20221;-57
2023/06/24 09:10:33;;;;;;;21.27;13.63;;;34.70;68.10;;;35.47;40.44;95039.34;4986149;28;20242;-61
2023/06/24 09:13:01;;;;;;;27.38;14.32;;;34.70;68.90;;;35.57;41.15;95032.91;4985783;28;20194;-59
2023/06/24 09:15:32;;;;;;;13.40;12.15;;;34.80;69.30;;;35.64;40.76;95031.44;4986316;28;20226;-56
2023/06/24 09:18:00;;;;;;;12.32;11.13;;;34.80;68.40;;;35.59;40.68;95034.25;4987091;28;20254;-60
2023/06/24 09:20:28;;;;;;;15.73;12.25;;;34.80;67.70;;;35.51;40.29;95034.94;4987566;28;20307;-60
2023/06/24 09:23:00;;;;;;;18.10;11.65;;;34.80;67.20;;;35.53;39.55;95038.97;4988475;28;20235;-56
2023/06/24 09:25:27;;;;;;;17.67;12.48;;;34.80;66.20;;;35.58;40.90;95040.81;4985068;28;20325;-60
2023/06/24 09:27:55;;;;;;;12.93;11.80;;;34.90;67.30;;;35.66;40.55;95036.63;4984534;28;20672;-59
2023/06/24 09:30:24;;;;;;;26.02;21.50;;;34.90;66.30;;;35.76;39.97;95038.38;4985029;28;20610;-58
2023/06/24 09:32:53;;;;;;;14.55;12.68;;;34.90;66.30;;;35.82;40.04;95039.97;4977873;28;20269;-70
2023/06/24 09:35:21;;;;;;;14.02;12.20;;;35.00;66.30;;;35.87;39.27;95037.19;4985650;28;20244;-59
2023/06/24 09:37:52;;;;;;;23.27;11.73;;;35.10;64.80;;;35.83;39.44;95036.94;4985588;28;20199;-61
2023/06/24 09:40:20;;;;;;;22.17;12.73;;;35.10;64.50;;;35.65;40.04;95034.97;4984190;28;20218;-58
2023/06/24 09:42:52;;;;;;;13.05;11.85;;;34.90;64.30;;;35.46;38.77;95027.59;4983611;28;20677;-55
2023/06/24 09:45:24;;;;;;;13.77;11.65;;;34.80;64.00;;;35.24;39.11;95038.25;4982782;28;20577;-59
2023/06/24 09:47:53;;;;;;;28.95;12.98;;;34.60;63.70;;;35.14;39.91;95036.47;4982292;28;20199;-57
2023/06/24 09:50:20;;;;;;;12.82;11.55;;;34.50;65.10;;;35.15;41.06;95038.91;4986382;28;20231;-59
2023/06/24 09:52:49;;;;;;;13.35;12.02;;;34.50;66.00;;;35.24;40.88;95036.31;4985516;28;20675;-56
2023/06/24 09:55:18;;;;;;;19.50;13.68;;;34.50;65.90;;;35.27;40.33;95033.03;4986498;28;20774;-55
2023/06/24 09:57:47;;;;;;;17.80;11.75;;;34.50;66.00;;;35.28;39.97;95025.66;4983309;28;20210;-56
2023/06/24 10:00:16;;;;;;;12.52;11.23;;;34.50;65.00;;;35.32;40.36;95024.78;4981002;28;20234;-58
2023/06/24 10:02:43;;;;;;;18.73;11.38;;;34.60;65.00;;;35.38;39.97;95019.22;4983520;28;20286;-58
2023/06/24 10:05:12;;;;;;;11.27;10.32;;;34.60;65.70;;;35.39;39.67;95016.19;4984147;28;20225;-57
2023/06/24 10:07:41;;;;;;;12.27;11.25;;;34.60;64.80;;;35.36;39.72;95006.66;4986395;28;20195;-59
2023/06/24 10:10:09;;;;;;;14.30;11.57;;;34.60;65.20;;;35.34;39.57;94999.88;4979566;28;20663;-60